Time;durP1;ratioP1;P1;durP2;ratioP2;P2;SDS_P1;SDS_P2;PMS_P1;PMS_P2;Temp;Humidity;BMP_temperature;BMP_pressure;BME280_temperature;BME280_humidity;BME280_pressure;Samples;Min_cycle;Max_cycle;Signal;HPM_P1;HPM_P2
2022/04/21 00:00:17;;;;;;;0.40;0.30;;;;;;;10.49;69.65;99947.21;104118;1279;109262;-70
2022/04/21 00:03:02;;;;;;;0.40;0.40;;;;;;;10.41;69.84;99945.89;104191;1279;95699;-70
2022/04/21 00:05:31;;;;;;;0.40;0.30;;;;;;;10.45;69.83;99945.92;104079;1279;138959;-71
2022/04/21 00:07:59;;;;;;;0.40;0.30;;;;;;;10.50;69.79;99951.09;104180;1279;110161;-70
2022/04/21 00:10:28;;;;;;;0.40;0.40;;;;;;;10.41;69.82;99946.78;104063;1279;138216;-71
2022/04/21 00:12:56;;;;;;;0.40;0.40;;;;;;;10.44;70.00;99945.79;104174;1279;108877;-70
2022/04/21 00:15:25;;;;;;;0.40;0.40;;;;;;;10.45;69.82;99947.35;104036;1279;139096;-70
2022/04/21 00:17:52;;;;;;;0.40;0.40;;;;;;;10.48;70.04;99949.56;104157;1279;95154;-71
2022/04/21 00:20:21;;;;;;;0.40;0.40;;;;;;;10.53;69.63;99949.41;104155;1279;109463;-72
2022/04/21 00:25:35;;;;;;;0.40;0.40;;;;;;;10.46;70.14;99945.20;104117;1279;108905;-71
2022/04/21 00:28:03;;;;;;;0.40;0.30;;;;;;;10.53;69.98;99945.65;104060;1279;138712;-70
2022/04/21 00:30:32;;;;;;;0.40;0.40;;;;;;;10.56;69.89;99951.05;104175;1279;95326;-71
2022/04/21 00:33:00;;;;;;;0.40;0.30;;;;;;;10.60;69.65;99950.41;104176;1280;109760;-71
2022/04/21 00:35:28;;;;;;;0.40;0.30;;;;;;;10.58;69.84;99947.83;104086;1279;139208;-71
2022/04/21 00:37:57;;;;;;;0.40;0.30;;;;;;;10.47;69.91;99947.10;104093;1279;108757;-71
2022/04/21 00:40:27;;;;;;;0.50;0.40;;;;;;;10.33;70.28;99942.77;104105;1278;138167;-70
2022/04/21 00:42:56;;;;;;;0.40;0.30;;;;;;;10.25;70.72;99945.86;104149;1279;95214;-72
2022/04/21 00:45:24;;;;;;;0.40;0.30;;;;;;;10.29;70.89;99941.28;103980;1279;139000;-71
2022/04/21 00:47:54;;;;;;;0.40;0.30;;;;;;;10.36;70.80;99937.51;104181;1279;99337;-70
2022/04/21 00:50:34;;;;;;;0.40;0.30;;;;;;;10.35;70.82;99936.48;104106;1279;109196;-72
2022/04/21 00:53:03;;;;;;;0.40;0.40;;;;;;;10.38;70.89;99935.15;103889;1279;138834;-71
2022/04/21 00:55:31;;;;;;;0.40;0.40;;;;;;;10.37;70.65;99934.48;104174;1279;95161;-71
2022/04/21 00:58:04;;;;;;;0.40;0.30;;;;;;;10.36;70.92;99935.56;104045;1279;138732;-71
2022/04/21 01:00:32;;;;;;;0.40;0.30;;;;;;;10.25;71.04;99938.40;104200;1278;99383;-70
2022/04/21 01:03:00;;;;;;;0.40;0.30;;;;;;;10.15;71.38;99933.04;104156;1279;109298;-69
2022/04/21 01:05:32;;;;;;;0.40;0.30;;;;;;;10.16;71.55;99932.46;103212;1279;139378;-69
2022/04/21 01:08:06;;;;;;;0.40;0.30;;;;;;;10.17;71.80;99933.48;103789;1279;95849;-71
2022/04/21 01:10:38;;;;;;;0.40;0.30;;;;;;;10.16;71.87;99935.64;104184;1279;138745;-69
2022/04/21 01:13:08;;;;;;;0.40;0.40;;;;;;;10.14;71.88;99935.19;104309;1279;98847;-70
2022/04/21 01:15:37;;;;;;;0.40;0.30;;;;;;;10.18;71.81;99937.73;104111;1279;139380;-69
2022/04/21 01:18:06;;;;;;;0.40;0.30;;;;;;;10.15;71.90;99938.54;104135;1278;168679;-70
2022/04/21 01:20:34;;;;;;;0.40;0.30;;;;;;;10.18;72.01;99939.48;104285;1279;95152;-71
2022/04/21 01:23:02;;;;;;;0.40;0.30;;;;;;;10.24;71.94;99949.98;104197;1279;139384;-69
2022/04/21 01:25:38;;;;;;;0.40;0.30;;;;;;;10.30;72.11;99946.02;104122;1279;98385;-70
2022/04/21 01:28:08;;;;;;;0.40;0.30;;;;;;;10.51;71.62;99942.73;104033;1279;138564;-70
2022/04/21 01:30:37;;;;;;;0.40;0.30;;;;;;;10.53;71.28;99941.39;104143;1279;95247;-71
2022/04/21 01:33:05;;;;;;;0.40;0.30;;;;;;;10.55;71.03;99938.50;104187;1278;95536;-71
2022/04/21 01:35:33;;;;;;;0.40;0.40;;;;;;;10.47;71.16;99931.50;104060;1279;138677;-70
2022/04/21 01:43:33;;;;;;;0.40;0.30;;;;;;;10.52;71.11;99918.16;104162;1279;95253;-71
2022/04/21 01:46:02;;;;;;;0.40;0.40;;;;;;;10.53;71.24;99916.02;104103;1278;138830;-71
2022/04/21 01:48:30;;;;;;;0.40;0.30;;;;;;;10.56;71.26;99914.15;104106;1279;109973;-71
2022/04/21 01:50:58;;;;;;;0.40;0.30;;;;;;;10.67;71.38;99920.89;104145;1279;99957;-71
2022/04/21 01:53:26;;;;;;;0.40;0.30;;;;;;;10.79;71.18;99917.27;103976;1279;138109;-71
2022/04/21 01:55:54;;;;;;;0.40;0.30;;;;;;;10.88;70.60;99916.95;104056;1279;95256;-72
2022/04/21 01:58:22;;;;;;;0.40;0.30;;;;;;;10.84;70.63;99917.45;104038;1279;138435;-70
2022/04/21 02:00:50;;;;;;;0.40;0.30;;;;;;;10.85;70.64;99911.53;104177;1279;109336;-70
2022/04/21 02:03:19;;;;;;;0.40;0.30;;;;;;;10.88;70.66;99907.89;104064;1278;139340;-69
2022/04/21 02:05:47;;;;;;;0.40;0.30;;;;;;;10.91;70.40;99900.69;104127;1279;108730;-71
2022/04/21 02:08:15;;;;;;;0.40;0.30;;;;;;;10.94;70.36;99903.59;104126;1279;95240;-71
2022/04/21 02:10:43;;;;;;;0.40;0.30;;;;;;;10.96;70.18;99900.67;104005;1279;139019;-71
2022/04/21 02:13:11;;;;;;;0.40;0.30;;;;;;;10.88;70.45;99897.40;104166;1277;109420;-69
2022/04/21 02:15:39;;;;;;;0.40;0.30;;;;;;;10.78;70.39;99895.98;104031;1279;138698;-70
2022/04/21 02:18:07;;;;;;;0.40;0.30;;;;;;;10.65;70.80;99896.11;104089;1279;108757;-71
2022/04/21 02:20:35;;;;;;;0.40;0.30;;;;;;;10.66;71.13;99896.58;104159;1279;95813;-70
2022/04/21 02:23:03;;;;;;;0.40;0.30;;;;;;;10.72;71.16;99895.11;104053;1279;138643;-71
2022/04/21 02:25:31;;;;;;;0.40;0.30;;;;;;;10.70;70.90;99894.48;104077;1279;109883;-71
2022/04/21 02:27:59;;;;;;;0.40;0.30;;;;;;;10.66;71.36;99888.06;104066;1278;138960;-71
2022/04/21 02:30:27;;;;;;;0.40;0.30;;;;;;;10.72;71.20;99886.61;104086;1279;108801;-71
2022/04/21 02:32:55;;;;;;;0.40;0.30;;;;;;;10.75;71.11;99884.21;104135;1279;95677;-71
2022/04/21 02:35:23;;;;;;;0.40;0.30;;;;;;;10.74;71.09;99884.07;104034;1279;138003;-72
2022/04/21 02:37:51;;;;;;;0.40;0.30;;;;;;;10.71;71.17;99876.70;104138;1279;109745;-71
2022/04/21 02:40:19;;;;;;;0.40;0.30;;;;;;;10.66;71.24;99873.67;104050;1279;139299;-71
2022/04/21 02:42:46;;;;;;;0.40;0.40;;;;;;;10.59;71.49;99875.88;104006;1280;108952;-70
2022/04/21 02:45:14;;;;;;;0.40;0.30;;;;;;;10.63;71.67;99875.22;104009;1279;138816;-71
2022/04/21 02:47:46;;;;;;;0.40;0.30;;;;;;;10.66;71.38;99878.48;104159;1279;95968;-71
2022/04/21 02:50:15;;;;;;;0.40;0.30;;;;;;;10.65;71.46;99876.21;104146;1279;109958;-70
2022/04/21 02:52:43;;;;;;;0.40;0.30;;;;;;;10.65;71.47;99875.33;104009;1279;138759;-71
2022/04/21 02:57:58;;;;;;;0.40;0.40;;;;;;;10.65;71.64;99875.14;104016;1279;138507;-72
2022/04/21 03:00:27;;;;;;;0.40;0.30;;;;;;;10.67;71.64;99875.96;104136;1279;95669;-70
2022/04/21 03:02:56;;;;;;;0.40;0.30;;;;;;;10.66;71.57;99875.27;104148;1279;109798;-72
2022/04/21 03:05:24;;;;;;;0.40;0.30;;;;;;;10.68;71.86;99874.33;104057;1279;138819;-72
2022/04/21 03:07:54;;;;;;;0.40;0.30;;;;;;;10.77;71.72;99873.46;104121;1279;108797;-71
2022/04/21 03:10:22;;;;;;;0.40;0.30;;;;;;;10.87;71.35;99872.05;104120;1279;139334;-71
2022/04/21 03:12:50;;;;;;;0.40;0.30;;;;;;;10.86;71.15;99876.35;104176;1278;95628;-70
2022/04/21 03:15:18;;;;;;;0.40;0.30;;;;;;;10.84;71.12;99874.27;104005;1279;138914;-69
2022/04/21 03:17:47;;;;;;;0.40;0.30;;;;;;;10.83;71.14;99875.36;103419;1279;99375;-71
2022/04/21 03:25:48;;;;;;;0.40;0.40;;;;;;;10.84;71.28;99878.55;104163;1279;95534;-71
2022/04/21 03:28:16;;;;;;;0.40;0.30;;;;;;;10.90;71.33;99880.48;104015;1279;138697;-71
2022/04/21 03:30:44;;;;;;;0.40;0.30;;;;;;;10.83;71.24;99875.19;104212;1279;99599;-69
2022/04/21 03:33:12;;;;;;;0.40;0.40;;;;;;;10.82;71.32;99872.05;104102;1278;108762;-71
2022/04/21 03:35:41;;;;;;;0.40;0.30;;;;;;;10.80;71.54;99876.54;103345;1279;138813;-71
2022/04/21 03:38:09;;;;;;;0.40;0.30;;;;;;;10.78;71.51;99876.12;104419;1279;96233;-71
2022/04/21 03:40:37;;;;;;;0.40;0.30;;;;;;;10.77;71.71;99874.19;104026;1278;138523;-71
2022/04/21 03:43:06;;;;;;;0.40;0.30;;;;;;;10.82;71.55;99872.60;104160;1278;99638;-71
2022/04/21 03:45:33;;;;;;;0.40;0.30;;;;;;;10.89;71.62;99871.98;104090;1279;138970;-71
2022/04/21 03:48:02;;;;;;;0.40;0.30;;;;;;;10.97;71.45;99874.88;104154;1279;95391;-71
2022/04/21 03:50:31;;;;;;;0.40;0.30;;;;;;;10.93;71.22;99873.09;104216;1278;95224;-69
2022/04/21 03:52:59;;;;;;;0.40;0.30;;;;;;;10.89;71.23;99871.99;103396;1279;138706;-70
2022/04/21 03:55:27;;;;;;;0.40;0.30;;;;;;;10.82;71.57;99870.63;103496;1278;99424;-72
2022/04/21 03:57:55;;;;;;;0.40;0.30;;;;;;;10.82;71.65;99867.80;104011;1279;139009;-72
2022/04/21 04:00:23;;;;;;;0.40;0.30;;;;;;;10.92;71.61;99867.98;104157;1279;95231;-71
2022/04/21 04:02:54;;;;;;;0.40;0.30;;;;;;;10.95;71.21;99871.27;104143;1279;95152;-72
2022/04/21 04:05:22;;;;;;;0.40;0.30;;;;;;;10.94;71.43;99872.70;104202;1279;138715;-71
2022/04/21 04:10:52;;;;;;;0.40;0.30;;;;;;;10.96;71.37;99870.99;104107;1279;139275;-71
2022/04/21 04:13:24;;;;;;;0.40;0.30;;;;;;;11.04;71.03;99879.44;104245;1279;95390;-72
2022/04/21 04:15:54;;;;;;;0.40;0.30;;;;;;;10.99;71.04;99881.55;104114;1279;140383;-71
2022/04/21 04:18:23;;;;;;;0.40;0.30;;;;;;;11.02;71.29;99881.09;104324;1279;108626;-69
2022/04/21 04:20:51;;;;;;;0.40;0.30;;;;;;;11.08;70.97;99877.88;104143;1279;98313;-72
2022/04/21 04:23:20;;;;;;;0.40;0.30;;;;;;;11.11;71.12;99877.41;104106;1279;139740;-71
2022/04/21 04:25:48;;;;;;;0.40;0.30;;;;;;;11.13;70.74;99874.66;104251;1279;98186;-70
2022/04/21 04:28:16;;;;;;;0.40;0.30;;;;;;;11.13;70.69;99876.80;103854;1279;138704;-71
2022/04/21 04:30:44;;;;;;;0.40;0.30;;;;;;;11.11;70.78;99881.30;104217;1279;108720;-70
2022/04/21 04:33:12;;;;;;;0.40;0.30;;;;;;;11.17;70.61;99887.48;104242;1279;100566;-68
2022/04/21 04:35:39;;;;;;;0.40;0.30;;;;;;;11.15;70.71;99890.23;104074;1279;137837;-71
2022/04/21 04:38:07;;;;;;;0.40;0.30;;;;;;;11.22;70.68;99897.08;104255;1279;95241;-68
2022/04/21 04:40:35;;;;;;;0.40;0.30;;;;;;;11.34;70.32;99892.55;103149;1279;139168;-68
2022/04/21 04:43:03;;;;;;;0.40;0.30;;;;;;;11.34;70.07;99890.06;103350;1279;109903;-68
2022/04/21 04:48:18;;;;;;;0.40;0.30;;;;;;;11.25;69.97;99897.69;104266;1279;108884;-70
2022/04/21 04:50:46;;;;;;;0.40;0.30;;;;;;;11.20;70.15;99900.70;104154;1278;95241;-70
2022/04/21 04:53:14;;;;;;;0.40;0.30;;;;;;;11.24;69.90;99898.27;104071;1279;138344;-70
2022/04/21 04:55:42;;;;;;;0.40;0.30;;;;;;;11.24;69.95;99896.99;104215;1279;110234;-71
2022/04/21 04:58:10;;;;;;;0.40;0.30;;;;;;;11.29;69.93;99899.13;104115;1278;138900;-68
2022/04/21 05:00:38;;;;;;;0.40;0.30;;;;;;;11.25;69.94;99898.60;103529;1279;108162;-72
2022/04/21 05:03:06;;;;;;;0.40;0.30;;;;;;;11.27;70.24;99900.80;104237;1279;95637;-71
2022/04/21 05:05:34;;;;;;;0.40;0.30;;;;;;;11.34;70.03;99904.64;104223;1279;139136;-71
2022/04/21 05:08:05;;;;;;;0.40;0.30;;;;;;;11.33;69.79;99902.88;104265;1279;108663;-71
2022/04/21 05:10:35;;;;;;;0.40;0.30;;;;;;;11.33;69.83;99901.64;104239;1279;138603;-72
2022/04/21 05:13:04;;;;;;;0.40;0.20;;;;;;;11.29;69.87;99908.74;104122;1281;109141;-70
2022/04/21 05:15:32;;;;;;;0.40;0.30;;;;;;;11.33;69.81;99905.19;104185;1279;138585;-70
2022/04/21 05:18:01;;;;;;;0.40;0.30;;;;;;;11.36;69.74;99902.59;104270;1279;95643;-72
2022/04/21 05:20:31;;;;;;;0.40;0.30;;;;;;;11.32;69.37;99905.42;104350;1278;109695;-71
2022/04/21 05:23:04;;;;;;;0.40;0.30;;;;;;;11.29;69.40;99909.43;104154;1279;138581;-70
2022/04/21 05:25:36;;;;;;;0.40;0.30;;;;;;;11.25;69.43;99907.82;104676;1278;106733;-70
2022/04/21 05:28:07;;;;;;;0.40;0.30;;;;;;;11.23;69.68;99910.52;104006;1279;138555;-71
2022/04/21 05:30:55;;;;;;;0.40;0.30;;;;;;;11.23;69.57;99911.48;104094;1279;95765;-70
2022/04/21 05:33:27;;;;;;;0.40;0.30;;;;;;;11.21;69.87;99910.95;104060;1278;138751;-69
2022/04/21 05:35:57;;;;;;;0.40;0.30;;;;;;;11.27;69.76;99906.84;104159;1278;98531;-68
2022/04/21 05:38:25;;;;;;;0.40;0.30;;;;;;;11.32;69.63;99907.20;106933;1277;109312;-69
2022/04/21 05:40:54;;;;;;;0.40;0.30;;;;;;;11.37;69.68;99911.61;107278;1278;138417;-69
2022/04/21 05:43:28;;;;;;;0.40;0.30;;;;;;;11.42;69.44;99913.92;103766;1278;95250;-69
2022/04/21 05:45:56;;;;;;;0.40;0.30;;;;;;;11.44;69.21;99914.20;104294;1281;138910;-68
2022/04/21 05:48:25;;;;;;;0.40;0.30;;;;;;;11.42;69.28;99919.98;107092;1278;98888;-67
2022/04/21 05:50:58;;;;;;;0.40;0.30;;;;;;;11.37;69.19;99921.73;105387;1278;108836;-69
2022/04/21 05:53:27;;;;;;;0.40;0.30;;;;;;;11.41;69.46;99920.38;103375;1279;139239;-67
2022/04/21 05:55:55;;;;;;;0.40;0.30;;;;;;;11.54;69.45;99915.79;103212;1279;96303;-70
2022/04/21 05:58:23;;;;;;;0.40;0.30;;;;;;;11.59;69.25;99915.79;103191;1279;139041;-68
2022/04/21 06:00:52;;;;;;;0.40;0.30;;;;;;;11.68;69.02;99915.78;103273;1279;99816;-69
2022/04/21 06:03:24;;;;;;;0.40;0.30;;;;;;;11.68;68.59;99914.02;103063;1279;138472;-68
2022/04/21 06:05:52;;;;;;;0.40;0.30;;;;;;;11.52;68.75;99918.19;103258;1278;95246;-69
2022/04/21 06:08:20;;;;;;;0.40;0.30;;;;;;;11.37;69.33;99925.14;103772;1279;95142;-70
2022/04/21 06:10:48;;;;;;;0.40;0.30;;;;;;;11.35;69.59;99918.81;103180;1278;138743;-70
2022/04/21 06:13:16;;;;;;;0.40;0.30;;;;;;;11.43;69.62;99919.95;103227;1278;99621;-68
2022/04/21 06:15:44;;;;;;;0.40;0.30;;;;;;;11.43;69.36;99917.80;103086;1279;138800;-71
2022/04/21 06:18:12;;;;;;;0.40;0.30;;;;;;;11.49;69.39;99918.81;104283;1279;95224;-70
2022/04/21 06:20:40;;;;;;;0.40;0.30;;;;;;;11.44;69.47;99919.56;103358;1279;95767;-69
2022/04/21 06:23:08;;;;;;;0.40;0.30;;;;;;;11.41;69.83;99926.59;103193;1279;138800;-68
2022/04/21 06:25:42;;;;;;;0.40;0.30;;;;;;;11.51;69.69;99922.66;103387;1279;98493;-69
2022/04/21 06:28:10;;;;;;;0.40;0.20;;;;;;;11.53;69.51;99922.95;103249;1279;138801;-70
2022/04/21 06:30:38;;;;;;;0.40;0.30;;;;;;;11.57;69.56;99920.32;103470;1279;95546;-69
2022/04/21 06:33:06;;;;;;;0.40;0.30;;;;;;;11.65;69.62;99923.56;104155;1279;95786;-69
2022/04/21 06:35:35;;;;;;;0.40;0.30;;;;;;;11.69;69.07;99926.43;104013;1279;138181;-69
2022/04/21 06:38:03;;;;;;;0.40;0.30;;;;;;;11.69;68.97;99924.08;103319;1279;99540;-69
2022/04/21 06:40:31;;;;;;;0.40;0.30;;;;;;;11.65;69.14;99924.98;103588;1279;139200;-69
2022/04/21 06:43:02;;;;;;;0.40;0.20;;;;;;;11.69;69.24;99927.85;103337;1279;95221;-70
2022/04/21 06:48:24;;;;;;;0.40;0.30;;;;;;;11.68;69.16;99926.09;104140;1279;109822;-69
2022/04/21 06:50:54;;;;;;;0.40;0.30;;;;;;;11.68;69.38;99924.50;103456;1279;99366;-69
2022/04/21 06:53:22;;;;;;;0.40;0.20;;;;;;;11.64;69.36;99927.12;103273;1279;138777;-71
2022/04/21 06:55:50;;;;;;;0.40;0.30;;;;;;;11.64;69.25;99926.44;104141;1279;95320;-68
2022/04/21 06:58:18;;;;;;;0.40;0.30;;;;;;;11.50;69.32;99929.11;103271;1279;138887;-70
2022/04/21 07:00:48;;;;;;;0.40;0.30;;;;;;;11.39;69.78;99929.15;103429;1279;109276;-70
2022/04/21 07:03:16;;;;;;;0.40;0.30;;;;;;;11.41;69.80;99929.42;103377;1279;99409;-68
2022/04/21 07:05:44;;;;;;;0.40;0.30;;;;;;;11.34;69.79;99933.09;103325;1279;139111;-70
2022/04/21 07:08:13;;;;;;;0.40;0.30;;;;;;;11.36;70.08;99932.30;103449;1279;95634;-68
2022/04/21 07:10:41;;;;;;;0.40;0.30;;;;;;;11.35;70.05;99934.09;103378;1279;138565;-70
2022/04/21 07:13:10;;;;;;;0.40;0.20;;;;;;;11.37;70.14;99933.13;104188;1279;110220;-70
2022/04/21 07:15:40;;;;;;;0.40;0.30;;;;;;;11.41;70.04;99933.89;103437;1279;140062;-70
2022/04/21 07:18:09;;;;;;;0.40;0.30;;;;;;;11.46;70.19;99939.20;103590;1278;109669;-71
2022/04/21 07:20:37;;;;;;;0.40;0.30;;;;;;;11.59;70.01;99934.63;104078;1279;95733;-69
2022/04/21 07:23:06;;;;;;;0.40;0.20;;;;;;;11.66;69.70;99937.55;103788;1279;141797;-69
2022/04/21 07:25:34;;;;;;;0.40;0.30;;;;;;;11.55;69.90;99936.73;103393;1279;109943;-70
2022/04/21 07:28:02;;;;;;;0.40;0.30;;;;;;;11.50;70.24;99940.46;104031;1279;138621;-70
2022/04/21 07:30:29;;;;;;;0.40;0.30;;;;;;;11.48;70.47;99940.73;104103;1279;108886;-70
2022/04/21 07:32:58;;;;;;;0.40;0.30;;;;;;;11.53;70.19;99941.09;104149;1279;95529;-69
2022/04/21 07:35:26;;;;;;;0.40;0.30;;;;;;;11.59;70.23;99941.38;103226;1279;138658;-69
2022/04/21 07:38:00;;;;;;;0.40;0.30;;;;;;;11.65;70.19;99938.47;103754;1279;109700;-69
2022/04/21 07:40:28;;;;;;;0.40;0.30;;;;;;;11.68;69.95;99940.49;103399;1279;138933;-69
2022/04/21 07:43:02;;;;;;;0.40;0.30;;;;;;;11.66;70.06;99945.04;103409;1279;109408;-69
2022/04/21 07:45:32;;;;;;;0.40;0.30;;;;;;;11.64;70.19;99950.98;103278;1279;139235;-70
2022/04/21 07:48:00;;;;;;;0.40;0.20;;;;;;;11.72;70.23;99948.37;104218;1279;95296;-69
2022/04/21 07:50:28;;;;;;;0.40;0.30;;;;;;;11.76;69.80;99948.92;104141;1279;109708;-70
2022/04/21 07:53:18;;;;;;;0.40;0.30;;;;;;;11.77;69.81;99948.73;103984;1279;138648;-71
2022/04/21 07:55:47;;;;;;;0.40;0.30;;;;;;;11.80;69.90;99951.95;104097;1279;107572;-71
2022/04/21 07:58:15;;;;;;;0.40;0.30;;;;;;;11.88;69.80;99953.25;103943;1281;139201;-69
2022/04/21 08:00:44;;;;;;;0.40;0.30;;;;;;;11.90;69.53;99949.11;104112;1279;95263;-69
2022/04/21 08:03:15;;;;;;;0.40;0.30;;;;;;;11.90;69.34;99947.86;103038;1279;110346;-70
2022/04/21 08:05:45;;;;;;;0.40;0.30;;;;;;;11.89;69.46;99945.40;103318;1279;138382;-70
2022/04/21 08:08:13;;;;;;;0.40;0.30;;;;;;;11.88;69.72;99949.35;104088;1279;109442;-70
2022/04/21 08:10:41;;;;;;;0.40;0.30;;;;;;;11.88;69.76;99948.81;103885;1281;139297;-69
2022/04/21 08:13:15;;;;;;;0.40;0.30;;;;;;;11.88;69.73;99951.27;103387;1279;95723;-69
2022/04/21 08:15:48;;;;;;;0.40;0.30;;;;;;;11.87;69.77;99949.39;103220;1279;140100;-70
2022/04/21 08:18:17;;;;;;;0.40;0.30;;;;;;;11.86;69.90;99949.77;104234;1279;99352;-67
2022/04/21 08:20:47;;;;;;;0.40;0.30;;;;;;;11.86;69.88;99956.18;103649;1278;108855;-70
2022/04/21 08:23:16;;;;;;;0.40;0.30;;;;;;;11.83;70.14;99950.80;103295;1279;139229;-70
2022/04/21 08:34:30;;;;;;;0.40;0.30;;;;;;;12.17;69.96;99939.86;103267;1279;139232;-69
2022/04/21 08:36:59;;;;;;;0.40;0.30;;;;;;;12.27;70.11;99935.19;103349;1279;95521;-70
2022/04/21 08:39:26;;;;;;;0.40;0.30;;;;;;;12.39;69.73;99929.02;103363;1279;138775;-69
2022/04/21 08:42:01;;;;;;;0.40;0.30;;;;;;;12.36;69.61;99930.75;103436;1279;109382;-69
2022/04/21 08:44:31;;;;;;;0.40;0.20;;;;;;;12.40;69.59;99924.34;103780;1279;99650;-69
2022/04/21 08:47:02;;;;;;;0.40;0.20;;;;;;;12.41;69.69;99927.14;103458;1279;138734;-70
2022/04/21 08:49:33;;;;;;;0.40;0.20;;;;;;;12.51;69.78;99925.88;104124;1279;95765;-70
2022/04/21 08:52:02;;;;;;;0.40;0.20;;;;;;;12.62;69.19;99929.32;103467;1279;138956;-68
2022/04/21 08:54:31;;;;;;;0.40;0.20;;;;;;;12.60;68.85;99930.11;103420;1279;109695;-69
2022/04/21 08:56:59;;;;;;;0.40;0.30;;;;;;;12.65;69.49;99930.94;103422;1279;99491;-69
2022/04/21 08:59:28;;;;;;;0.40;0.30;;;;;;;12.78;68.99;99927.38;103494;1279;139000;-69
2022/04/21 09:02:00;;;;;;;0.40;0.20;;;;;;;12.88;68.90;99928.34;103491;1279;95768;-67
2022/04/21 09:04:32;;;;;;;0.40;0.20;;;;;;;12.95;68.35;99927.20;103588;1279;139176;-69
2022/04/21 09:07:20;;;;;;;0.40;0.20;;;;;;;12.91;68.37;99931.09;103275;1279;109722;-69
2022/04/21 09:09:59;;;;;;;0.40;0.20;;;;;;;12.98;68.36;99928.83;103442;1279;139976;-68
2022/04/21 09:12:27;;;;;;;0.40;0.20;;;;;;;13.06;68.13;99927.23;103250;1279;108692;-68
2022/04/21 09:14:57;;;;;;;0.40;0.20;;;;;;;13.13;67.73;99924.64;103435;1279;95652;-69
2022/04/21 09:17:25;;;;;;;0.40;0.20;;;;;;;13.09;67.28;99922.98;103379;1279;138393;-68
2022/04/21 09:19:57;;;;;;;0.40;0.20;;;;;;;13.07;67.56;99921.13;103283;1281;109722;-68
2022/04/21 09:22:31;;;;;;;0.40;0.20;;;;;;;13.17;67.72;99924.46;103343;1279;138435;-69
2022/04/21 09:24:59;;;;;;;0.40;0.20;;;;;;;13.23;67.53;99918.45;103549;1279;108918;-68
2022/04/21 09:27:40;;;;;;;0.40;0.20;;;;;;;13.25;67.48;99919.63;103187;1279;139109;-68
2022/04/21 09:30:12;;;;;;;0.40;0.20;;;;;;;13.33;67.19;99921.19;103368;1279;95245;-67
2022/04/21 09:32:58;;;;;;;0.40;0.30;;;;;;;13.34;67.00;99914.92;103788;1280;109717;-68
2022/04/21 09:35:27;;;;;;;0.40;0.30;;;;;;;13.30;66.85;99916.38;103244;1279;139075;-68
2022/04/21 09:37:57;;;;;;;0.40;0.20;;;;;;;13.28;66.54;99911.28;103721;1279;108302;-68
2022/04/21 09:40:27;;;;;;;0.40;0.20;;;;;;;13.22;66.55;99912.80;103451;1279;139726;-70
2022/04/21 09:43:03;;;;;;;0.40;0.20;;;;;;;13.28;66.70;99905.57;103479;1279;97976;-69
2022/04/21 09:48:30;;;;;;;0.40;0.20;;;;;;;13.31;66.02;99903.12;103382;1279;99286;-70
2022/04/21 09:51:13;;;;;;;0.40;0.20;;;;;;;13.34;65.96;99905.99;103614;1279;108799;-69
2022/04/21 09:54:10;;;;;;;0.40;0.20;;;;;;;13.35;65.97;99907.38;103767;1279;138829;-69
2022/04/21 09:56:40;;;;;;;0.40;0.20;;;;;;;13.43;65.67;99901.17;103336;1279;95221;-69
2022/04/21 09:59:13;;;;;;;0.40;0.20;;;;;;;13.42;65.25;99900.71;103469;1279;138226;-69
2022/04/21 10:01:42;;;;;;;0.40;0.20;;;;;;;13.40;65.67;99903.63;103428;1279;99653;-70
2022/04/21 10:04:13;;;;;;;0.40;0.30;;;;;;;13.42;65.22;99903.39;103691;1279;139326;-69
2022/04/21 10:06:42;;;;;;;0.40;0.20;;;;;;;13.37;65.36;99905.73;103791;1279;95577;-70
2022/04/21 10:09:13;;;;;;;0.40;0.30;;;;;;;13.31;65.19;99907.43;103529;1279;95632;-68
2022/04/21 10:11:44;;;;;;;0.40;0.20;;;;;;;13.30;65.63;99911.58;103465;1279;136814;-69
2022/04/21 10:14:13;;;;;;;0.40;0.30;;;;;;;13.31;65.57;99909.17;103495;1279;99467;-67
2022/04/21 10:16:46;;;;;;;0.40;0.20;;;;;;;13.34;65.41;99909.06;103529;1279;139581;-69
2022/04/21 10:19:19;;;;;;;0.40;0.20;;;;;;;13.35;65.47;99907.77;103216;1281;95123;-68
2022/04/21 10:21:51;;;;;;;0.40;0.20;;;;;;;13.40;65.66;99907.03;103156;1280;139267;-70
2022/04/21 10:24:27;;;;;;;0.40;0.20;;;;;;;13.50;65.64;99903.70;104198;1281;109287;-70
2022/04/21 10:26:56;;;;;;;0.40;0.30;;;;;;;13.54;65.26;99899.79;104296;1279;99550;-69
2022/04/21 10:29:27;;;;;;;0.40;0.20;;;;;;;13.50;64.95;99900.30;103225;1280;138252;-70
2022/04/21 10:32:00;;;;;;;0.40;0.20;;;;;;;13.52;65.08;99905.77;103451;1280;95149;-69
2022/04/21 10:34:35;;;;;;;0.40;0.20;;;;;;;13.58;64.86;99907.08;103470;1279;138994;-68
2022/04/21 10:37:21;;;;;;;0.40;0.30;;;;;;;13.59;64.84;99909.38;103467;1280;109796;-70
2022/04/21 10:40:04;;;;;;;0.40;0.30;;;;;;;13.65;65.04;99907.86;103342;1279;138751;-69
2022/04/21 10:42:59;;;;;;;0.40;0.30;;;;;;;13.76;65.31;99905.02;103387;1280;109186;-68
2022/04/21 10:45:32;;;;;;;0.40;0.30;;;;;;;13.87;64.93;99910.17;104036;1280;139071;-69
2022/04/21 10:48:08;;;;;;;0.40;0.20;;;;;;;13.91;64.43;99914.98;103388;1281;95248;-68
2022/04/21 10:50:37;;;;;;;0.40;0.20;;;;;;;13.89;64.03;99912.75;103498;1279;110196;-70
2022/04/21 10:58:47;;;;;;;0.40;0.20;;;;;;;13.91;63.78;99909.13;103298;1279;138787;-67
2022/04/21 11:01:16;;;;;;;0.40;0.30;;;;;;;14.00;63.89;99912.98;103431;1280;96546;-68
2022/04/21 11:03:46;;;;;;;0.40;0.20;;;;;;;14.04;63.13;99908.83;103248;1278;138568;-68
2022/04/21 11:06:15;;;;;;;0.40;0.20;;;;;;;14.05;63.37;99910.55;103407;1279;99425;-69
2022/04/21 11:08:43;;;;;;;0.40;0.20;;;;;;;14.13;63.48;99913.22;103377;1279;108763;-68
2022/04/21 11:11:13;;;;;;;0.40;0.20;;;;;;;14.15;63.00;99913.81;103121;1280;139307;-68
2022/04/21 11:13:51;;;;;;;0.40;0.20;;;;;;;14.18;62.40;99911.20;103327;1279;95670;-69
2022/04/21 11:16:41;;;;;;;0.40;0.20;;;;;;;14.14;61.86;99907.64;103341;1279;138398;-68
2022/04/21 11:19:29;;;;;;;0.40;0.20;;;;;;;14.10;62.03;99908.73;103452;1279;99314;-69
2022/04/21 11:21:59;;;;;;;0.40;0.20;;;;;;;14.10;62.07;99909.27;103601;1279;138511;-68
2022/04/21 11:24:28;;;;;;;0.40;0.20;;;;;;;14.19;61.90;99908.27;103478;1280;96109;-68
2022/04/21 11:26:58;;;;;;;0.40;0.20;;;;;;;14.25;61.72;99904.23;103488;1280;95159;-68
2022/04/21 11:29:26;;;;;;;0.40;0.20;;;;;;;14.31;61.77;99900.58;103425;1280;137949;-68
2022/04/21 11:31:57;;;;;;;0.40;0.20;;;;;;;14.39;61.50;99902.50;103554;1279;99371;-69
2022/04/21 11:34:26;;;;;;;0.40;0.20;;;;;;;14.53;61.43;99904.13;103332;1280;138697;-69
2022/04/21 11:37:01;;;;;;;0.40;0.30;;;;;;;14.71;61.18;99902.48;103692;1279;95259;-68
2022/04/21 11:39:29;;;;;;;0.40;0.20;;;;;;;14.85;60.28;99898.59;103380;1279;138614;-68
2022/04/21 11:41:57;;;;;;;0.40;0.20;;;;;;;14.91;59.33;99898.11;103442;1279;109755;-67
2022/04/21 11:44:26;;;;;;;0.40;0.20;;;;;;;14.84;58.85;99894.88;103461;1279;99492;-69
2022/04/21 11:46:54;;;;;;;0.40;0.20;;;;;;;14.85;59.33;99892.48;103449;1279;138545;-68
2022/04/21 11:49:22;;;;;;;0.40;0.20;;;;;;;14.82;58.71;99895.88;103642;1278;95274;-68
2022/04/21 11:51:53;;;;;;;0.40;0.20;;;;;;;14.73;58.74;99892.40;103403;1279;138286;-68
2022/04/21 11:54:21;;;;;;;0.40;0.20;;;;;;;14.64;58.48;99892.29;103415;1279;109098;-68
2022/04/21 11:56:51;;;;;;;0.40;0.20;;;;;;;14.64;58.75;99893.94;103374;1279;99458;-67
2022/04/21 11:59:19;;;;;;;0.40;0.20;;;;;;;14.61;58.84;99894.24;103342;1281;137942;-68
2022/04/21 12:07:25;;;;;;;0.40;0.20;;;;;;;14.42;59.03;99895.55;103588;1280;109409;-67
2022/04/21 12:09:53;;;;;;;0.40;0.20;;;;;;;14.39;58.96;99892.48;103477;1280;138869;-68
2022/04/21 12:12:21;;;;;;;0.40;0.20;;;;;;;14.41;58.69;99897.22;103405;1279;108751;-68
2022/04/21 12:14:49;;;;;;;0.40;0.20;;;;;;;14.42;58.77;99896.08;103669;1280;95958;-67
2022/04/21 12:17:18;;;;;;;0.40;0.20;;;;;;;14.47;58.80;99900.46;103434;1280;138026;-67
2022/04/21 12:19:46;;;;;;;0.40;0.20;;;;;;;14.45;58.38;99898.45;103910;1280;109694;-68